ΕΜΥ, Εθνική Μετεωρολογική Υπηρεσία - Δελτία Καιρού, Προγνώσεις

ΑΕΡΟΝΑΥΤΙΛΙΑ

GREEK AIRPORTS CODES

LGAV 261350Z 21015KT 9999 FEW025 SCT070 17/11 Q1009 RMK BKN180 NOSIG=

EUROPEAN AIRPORTS CODES

LFPO 261400Z 28013KT 250V310 8000 SCT015TCU SCT024 06/03Q1009 TEMPO 28020G35KT 4000 SHRA BKN012 BKN020CB=